Time;durP1;ratioP1;P1;durP2;ratioP2;P2;SDS_P1;SDS_P2;PMS_P1;PMS_P2;Temp;Humidity;BMP_temperature;BMP_pressure;BME280_temperature;BME280_humidity;BME280_pressure;Samples;Min_cycle;Max_cycle;Signal;HPM_P1;HPM_P2
2024/01/31 00:00:09;;;;;;;4.20;1.83;;;9.20;99.90;;;9.13;100.00;102742.63;5253484;28;20052;-47
2024/01/31 00:02:41;;;;;;;8.77;2.22;;;9.20;99.90;;;9.15;100.00;102748.81;5263878;28;20054;-47
2024/01/31 00:05:14;;;;;;;5.32;2.15;;;9.20;99.90;;;9.13;100.00;102750.44;5262606;28;20048;-47
2024/01/31 00:07:48;;;;;;;5.00;1.88;;;9.20;99.90;;;9.10;100.00;102742.38;5265170;28;20055;-47
2024/01/31 00:10:20;;;;;;;3.97;1.80;;;9.10;99.90;;;9.12;100.00;102748.59;5269425;28;20520;-47
2024/01/31 00:12:53;;;;;;;4.88;2.20;;;9.20;99.90;;;9.14;100.00;102744.41;5263595;28;20507;-47
2024/01/31 00:15:25;;;;;;;3.67;2.20;;;9.10;99.90;;;9.14;100.00;102749.63;5262918;28;20550;-47
2024/01/31 00:17:58;;;;;;;4.90;2.33;;;9.20;99.90;;;9.13;100.00;102740.03;5273389;28;20044;-47
2024/01/31 00:20:31;;;;;;;5.60;2.25;;;9.20;99.90;;;9.13;100.00;102742.63;5271181;28;20683;-47
2024/01/31 00:23:06;;;;;;;4.40;1.77;;;9.20;99.90;;;9.08;100.00;102738.78;5261725;28;20053;-47
2024/01/31 00:25:38;;;;;;;3.80;1.70;;;9.10;99.90;;;9.07;100.00;102739.56;5267877;28;20449;-47
2024/01/31 00:28:10;;;;;;;4.18;2.15;;;9.10;99.90;;;9.08;100.00;102744.88;5257975;28;20047;-47
2024/01/31 00:30:43;;;;;;;4.80;2.35;;;9.10;99.90;;;9.07;100.00;102736.97;5265226;28;20134;-47
2024/01/31 00:33:18;;;;;;;5.13;2.83;;;9.10;99.90;;;9.07;100.00;102742.19;5267311;28;20051;-47
2024/01/31 00:35:52;;;;;;;4.30;2.08;;;9.10;99.90;;;9.04;100.00;102744.53;5262562;28;20058;-48
2024/01/31 00:38:25;;;;;;;4.05;2.45;;;9.10;99.90;;;9.03;100.00;102745.34;5263304;28;20047;-47
2024/01/31 00:40:58;;;;;;;3.55;1.98;;;9.10;99.90;;;9.01;100.00;102741.75;5262839;28;20055;-47
2024/01/31 00:43:30;;;;;;;6.28;2.10;;;9.00;99.90;;;8.98;100.00;102743.31;5266515;28;20039;-47
2024/01/31 00:46:04;;;;;;;4.85;2.33;;;9.00;99.90;;;8.97;100.00;102749.31;5264246;28;20060;-47
2024/01/31 00:48:36;;;;;;;7.32;2.55;;;9.00;99.90;;;8.96;100.00;102744.91;5268431;28;20039;-48
2024/01/31 00:51:11;;;;;;;3.30;1.85;;;9.00;99.90;;;8.92;100.00;102737.66;5262161;28;20066;-47
2024/01/31 00:53:45;;;;;;;5.00;2.38;;;9.00;99.90;;;8.90;100.00;102734.06;5257204;28;20594;-48
2024/01/31 00:56:17;;;;;;;5.00;2.42;;;8.90;99.90;;;8.90;100.00;102738.34;5268211;28;20039;-47
2024/01/31 00:58:49;;;;;;;5.72;2.33;;;8.90;99.90;;;8.87;100.00;102738.16;5263090;28;20093;-47
2024/01/31 01:01:22;;;;;;;5.63;2.55;;;8.90;99.90;;;8.85;100.00;102732.81;5260558;28;20143;-47
2024/01/31 01:03:54;;;;;;;6.50;1.45;;;8.90;99.90;;;8.84;100.00;102735.31;5251211;28;20048;-47
2024/01/31 01:06:27;;;;;;;6.53;2.70;;;8.90;99.90;;;8.86;100.00;102742.41;5249431;28;20045;-47
2024/01/31 01:09:00;;;;;;;6.38;2.63;;;8.90;99.90;;;8.87;100.00;102732.94;5251985;28;20059;-48
2024/01/31 01:11:33;;;;;;;4.72;2.35;;;8.90;99.90;;;8.88;100.00;102737.34;5246314;28;20072;-47
2024/01/31 01:14:06;;;;;;;2.78;2.25;;;8.90;99.90;;;8.90;100.00;102734.06;5246577;28;20571;-48
2024/01/31 01:16:38;;;;;;;6.15;2.65;;;8.90;99.90;;;8.90;100.00;102739.25;5247530;28;20097;-47
2024/01/31 01:19:11;;;;;;;10.77;2.58;;;8.90;99.90;;;8.88;100.00;102746.06;5252445;28;20063;-48
2024/01/31 01:21:43;;;;;;;5.43;2.85;;;8.90;99.90;;;8.88;100.00;102746.06;5256175;28;20088;-47
2024/01/31 01:24:17;;;;;;;5.53;2.17;;;8.90;99.90;;;8.89;100.00;102747.84;5247493;28;20044;-47
2024/01/31 01:26:49;;;;;;;5.68;2.60;;;8.90;99.90;;;8.87;100.00;102741.66;5255646;28;20523;-48
2024/01/31 01:29:22;;;;;;;8.63;2.60;;;8.90;99.90;;;8.86;100.00;102746.72;5247588;28;20041;-47
2024/01/31 01:31:54;;;;;;;4.28;2.30;;;8.90;99.90;;;8.86;100.00;102747.63;5251879;28;20044;-47
2024/01/31 01:34:26;;;;;;;9.93;3.63;;;8.90;99.90;;;8.88;100.00;102753.84;5258607;28;20047;-47
2024/01/31 01:36:59;;;;;;;4.22;2.40;;;8.90;99.90;;;8.91;100.00;102753.16;5254125;28;20059;-47
2024/01/31 01:39:33;;;;;;;8.07;2.72;;;8.90;99.90;;;8.91;100.00;102758.34;5260528;28;20048;-47
2024/01/31 01:42:05;;;;;;;6.05;2.75;;;8.90;99.90;;;8.90;100.00;102754.84;5261551;28;20113;-48
2024/01/31 01:44:44;;;;;;;4.45;1.98;;;8.90;99.90;;;8.91;100.00;102755.75;5251293;28;20047;-47
2024/01/31 01:47:18;;;;;;;6.45;2.58;;;8.90;99.90;;;8.90;100.00;102753.97;5249326;28;20049;-47
2024/01/31 01:49:50;;;;;;;6.97;3.05;;;8.90;99.90;;;8.90;100.00;102749.66;5253205;28;20074;-47
2024/01/31 01:52:23;;;;;;;10.05;2.63;;;8.90;99.90;;;8.88;100.00;102755.56;5253524;28;20054;-47
2024/01/31 01:54:57;;;;;;;8.30;4.10;;;8.90;99.90;;;8.85;100.00;102758.81;5253822;28;20497;-47
2024/01/31 01:57:31;;;;;;;7.80;3.00;;;8.90;99.90;;;8.84;100.00;102763.91;5255243;28;20048;-47
2024/01/31 02:00:05;;;;;;;8.23;3.22;;;8.90;99.90;;;8.83;100.00;102760.41;5252569;28;20044;-47
2024/01/31 02:02:39;;;;;;;8.45;3.58;;;8.90;99.90;;;8.83;100.00;102762.09;5261578;28;20071;-47
2024/01/31 02:05:11;;;;;;;7.00;3.40;;;8.90;99.90;;;8.80;100.00;102765.41;5262324;28;20526;-47
2024/01/31 02:07:45;;;;;;;9.27;4.20;;;8.90;99.90;;;8.80;100.00;102761.88;5262502;28;20048;-47
2024/01/31 02:10:19;;;;;;;13.43;4.18;;;8.80;99.90;;;8.78;100.00;102761.75;5245104;28;20048;-47
2024/01/31 02:12:51;;;;;;;8.65;3.95;;;8.90;99.90;;;8.75;100.00;102768.44;5257253;28;20056;-47
2024/01/31 02:15:23;;;;;;;11.98;4.18;;;8.80;99.90;;;8.72;100.00;102773.41;5252092;28;20028;-47
2024/01/31 02:17:56;;;;;;;6.60;3.47;;;8.80;99.90;;;8.67;100.00;102771.41;5260378;28;20055;-47
2024/01/31 02:20:28;;;;;;;6.50;3.88;;;8.70;99.90;;;8.65;100.00;102772.06;5255724;28;20041;-48
2024/01/31 02:23:02;;;;;;;11.23;3.42;;;8.70;99.90;;;8.63;100.00;102774.56;5254047;28;20063;-47
2024/01/31 02:25:34;;;;;;;6.30;2.63;;;8.70;99.90;;;8.61;100.00;102772.63;5263547;28;20051;-47
2024/01/31 02:28:07;;;;;;;9.18;4.70;;;8.70;99.90;;;8.60;100.00;102770.81;5259920;28;20426;-47
2024/01/31 02:30:39;;;;;;;5.88;3.38;;;8.70;99.90;;;8.57;100.00;102774.09;5262460;28;20719;-48
2024/01/31 02:33:12;;;;;;;6.90;2.22;;;8.70;99.90;;;8.57;100.00;102770.59;5253739;28;20422;-47
2024/01/31 02:35:44;;;;;;;7.72;3.22;;;8.60;99.90;;;8.55;100.00;102775.69;5256969;28;20038;-47
2024/01/31 02:38:18;;;;;;;15.18;4.13;;;8.60;99.90;;;8.56;100.00;102777.50;5257052;28;20048;-47
2024/01/31 02:40:50;;;;;;;8.45;3.70;;;8.60;99.90;;;8.55;100.00;102774.78;5253009;28;20235;-47
2024/01/31 02:43:22;;;;;;;8.93;3.63;;;8.60;99.90;;;8.54;100.00;102767.75;5253502;28;20502;-47
2024/01/31 02:45:55;;;;;;;11.65;5.07;;;8.60;99.90;;;8.53;100.00;102777.25;5255523;28;20044;-47
2024/01/31 02:48:27;;;;;;;13.20;4.50;;;8.60;99.90;;;8.55;100.00;102779.97;5250262;28;20052;-47
2024/01/31 02:50:59;;;;;;;8.90;4.30;;;8.60;99.90;;;8.55;100.00;102780.88;5253302;28;20418;-47
2024/01/31 02:53:33;;;;;;;7.63;4.53;;;8.60;99.90;;;8.53;100.00;102772.03;5258703;28;20048;-47
2024/01/31 02:56:08;;;;;;;8.18;3.47;;;8.60;99.90;;;8.53;100.00;102778.94;5255883;28;20052;-48
2024/01/31 02:58:40;;;;;;;7.53;3.80;;;8.60;99.90;;;8.53;100.00;102784.16;5259368;28;20055;-47
2024/01/31 03:01:13;;;;;;;7.72;4.03;;;8.60;99.90;;;8.52;100.00;102784.94;5248461;28;20052;-47
2024/01/31 03:03:45;;;;;;;9.02;4.10;;;8.50;99.90;;;8.51;100.00;102781.44;5258805;28;20047;-47
2024/01/31 03:06:17;;;;;;;6.82;3.33;;;8.50;99.90;;;8.52;100.00;102774.53;5251818;28;20057;-47
2024/01/31 03:08:51;;;;;;;7.60;3.67;;;8.60;99.90;;;8.54;100.00;102776.47;5250089;28;20051;-47
2024/01/31 03:11:23;;;;;;;6.97;3.50;;;8.60;99.90;;;8.57;100.00;102778.41;5253429;28;20051;-47
2024/01/31 03:13:56;;;;;;;10.65;4.60;;;8.60;99.90;;;8.56;100.00;102768.78;5258632;28;20063;-47
2024/01/31 03:16:28;;;;;;;9.48;3.47;;;8.60;99.90;;;8.57;100.00;102776.69;5251015;28;20051;-47
2024/01/31 03:19:00;;;;;;;9.20;3.90;;;8.60;99.90;;;8.57;100.00;102778.41;5257256;28;20056;-47
2024/01/31 03:21:36;;;;;;;9.88;4.50;;;8.60;99.90;;;8.57;100.00;102784.50;5249861;28;20506;-47
2024/01/31 03:24:10;;;;;;;5.55;3.53;;;8.60;99.90;;;8.56;100.00;102777.50;5245880;28;20043;-47
2024/01/31 03:26:43;;;;;;;7.90;3.58;;;8.60;99.90;;;8.54;100.00;102786.88;5251289;28;20098;-47
2024/01/31 03:29:15;;;;;;;9.68;4.32;;;8.60;99.90;;;8.53;100.00;102776.34;5260247;28;20052;-47
2024/01/31 03:31:48;;;;;;;13.52;4.50;;;8.60;99.90;;;8.52;100.00;102782.34;5251058;28;20036;-47
2024/01/31 03:34:20;;;;;;;10.55;4.38;;;8.50;99.90;;;8.50;100.00;102781.31;5259045;28;20515;-48
2024/01/31 03:36:53;;;;;;;11.93;3.72;;;8.50;99.90;;;8.49;100.00;102776.94;5248329;28;20048;-47
2024/01/31 03:39:27;;;;;;;8.32;3.50;;;8.50;99.90;;;8.51;100.00;102777.94;5249826;28;20703;-47
2024/01/31 03:41:59;;;;;;;9.23;4.18;;;8.50;99.90;;;8.51;100.00;102789.22;5252517;28;20407;-47
2024/01/31 03:44:33;;;;;;;10.98;4.88;;;8.50;99.90;;;8.50;100.00;102783.94;5252169;28;20046;-47
2024/01/31 03:47:05;;;;;;;9.60;4.32;;;8.50;99.90;;;8.46;100.00;102784.47;5251438;28;20064;-47
2024/01/31 03:49:41;;;;;;;12.38;4.70;;;8.50;99.90;;;8.45;100.00;102788.78;5255451;28;20047;-47
2024/01/31 03:52:13;;;;;;;9.70;4.88;;;8.50;99.90;;;8.43;100.00;102785.16;5250477;28;20040;-47
2024/01/31 03:54:47;;;;;;;10.75;4.97;;;8.50;99.90;;;8.45;100.00;102790.47;5246515;28;20506;-47
2024/01/31 03:57:19;;;;;;;13.63;4.50;;;8.50;99.90;;;8.43;100.00;102790.38;5246593;28;20049;-47
2024/01/31 03:59:52;;;;;;;13.13;4.07;;;8.50;99.90;;;8.40;100.00;102780.63;5248843;28;20682;-47
2024/01/31 04:02:24;;;;;;;12.27;5.13;;;8.40;99.90;;;8.41;100.00;102787.66;5257682;28;22345;-47
2024/01/31 04:04:58;;;;;;;13.60;5.20;;;8.40;99.90;;;8.40;100.00;102790.13;5255299;28;20106;-47
2024/01/31 04:07:30;;;;;;;8.18;4.47;;;8.40;99.90;;;8.38;100.00;102784.81;5259405;28;20139;-47
2024/01/31 04:10:05;;;;;;;12.63;5.00;;;8.40;99.90;;;8.35;100.00;102776.78;5254545;28;20533;-47
2024/01/31 04:12:38;;;;;;;13.15;4.45;;;8.40;99.90;;;8.36;100.00;102780.31;5249226;28;20071;-48
2024/01/31 04:15:10;;;;;;;9.48;4.72;;;8.40;99.90;;;8.35;100.00;102776.78;5247572;28;20051;-47
2024/01/31 04:17:42;;;;;;;10.02;4.65;;;8.40;99.90;;;8.34;100.00;102774.94;5261900;28;20052;-47
2024/01/31 04:20:16;;;;;;;11.52;5.13;;;8.40;99.90;;;8.36;100.00;102782.91;5248299;28;20150;-47
2024/01/31 04:22:48;;;;;;;16.23;5.97;;;8.40;99.90;;;8.35;100.00;102781.06;5253588;28;20063;-48
2024/01/31 04:25:22;;;;;;;16.27;4.65;;;8.30;99.90;;;8.34;100.00;102777.53;5253541;28;20407;-47
2024/01/31 04:27:54;;;;;;;10.90;5.03;;;8.40;99.90;;;8.33;100.00;102778.31;5262372;28;20044;-47
2024/01/31 04:30:27;;;;;;;13.70;4.90;;;8.40;99.90;;;8.34;100.00;102774.94;5251203;28;20067;-47
2024/01/31 04:33:01;;;;;;;13.23;4.78;;;8.30;99.90;;;8.36;100.00;102775.09;5255254;28;20876;-48
2024/01/31 04:35:33;;;;;;;10.20;4.38;;;8.40;99.90;;;8.34;100.00;102769.72;5254994;28;20120;-47
2024/01/31 04:38:06;;;;;;;12.68;5.43;;;8.30;99.90;;;8.35;100.00;102761.22;5257407;28;20048;-48
2024/01/31 04:40:39;;;;;;;10.57;4.78;;;8.30;99.90;;;8.35;100.00;102760.28;5248484;28;20075;-47
2024/01/31 04:43:15;;;;;;;8.45;3.88;;;8.30;99.90;;;8.36;100.00;102752.63;5249674;28;20048;-47
2024/01/31 04:45:48;;;;;;;13.77;5.78;;;8.40;99.90;;;8.39;100.00;102745.03;5257115;28;20041;-47
2024/01/31 04:48:21;;;;;;;13.10;4.60;;;8.40;99.90;;;8.41;100.00;102739.94;5247536;28;20131;-47
2024/01/31 04:50:53;;;;;;;18.85;5.75;;;8.40;99.90;;;8.41;100.00;102733.06;5250920;28;20044;-48
2024/01/31 04:53:25;;;;;;;12.02;4.35;;;8.40;99.90;;;8.43;100.00;102735.78;5259367;28;20051;-47
2024/01/31 04:56:03;;;;;;;10.77;5.07;;;8.40;99.90;;;8.43;100.00;102728.88;5252795;28;20499;-48
2024/01/31 04:58:35;;;;;;;16.20;6.30;;;8.40;99.90;;;8.44;100.00;102732.38;5255961;28;20052;-48
2024/01/31 05:01:08;;;;;;;15.00;5.50;;;8.40;99.90;;;8.42;100.00;102732.28;5249199;28;20063;-47
2024/01/31 05:03:43;;;;;;;13.40;5.68;;;8.40;99.90;;;8.42;100.00;102740.06;5255184;28;20197;-47
2024/01/31 05:06:15;;;;;;;12.32;5.90;;;8.40;99.90;;;8.43;100.00;102744.47;5254925;28;20079;-47
2024/01/31 05:08:48;;;;;;;15.43;6.13;;;8.40;99.90;;;8.42;100.00;102747.88;5256325;28;20113;-47
2024/01/31 05:11:21;;;;;;;12.82;5.50;;;8.40;99.90;;;8.41;100.00;102740.88;5253959;28;20059;-47
2024/01/31 05:13:57;;;;;;;15.77;5.72;;;8.40;99.90;;;8.39;100.00;102732.03;5260574;28;20044;-48
2024/01/31 05:16:29;;;;;;;14.27;5.90;;;8.40;99.90;;;8.38;100.00;102740.63;5262941;28;20507;-47
2024/01/31 05:19:02;;;;;;;12.98;5.53;;;8.40;99.90;;;8.38;100.00;102745.81;5260145;28;20422;-48
2024/01/31 05:21:34;;;;;;;12.10;4.68;;;8.40;99.90;;;8.35;100.00;102749.88;5253651;28;20097;-47
2024/01/31 05:24:07;;;;;;;14.57;7.22;;;8.40;99.90;;;8.32;100.00;102755.72;5256537;28;20090;-48
2024/01/31 05:26:41;;;;;;;11.73;5.53;;;8.30;99.90;;;8.31;100.00;102753.94;5255599;28;20048;-47
2024/01/31 05:29:14;;;;;;;10.57;4.40;;;8.30;99.90;;;8.30;100.00;102746.91;5259599;28;20052;-47
2024/01/31 05:31:46;;;;;;;14.20;5.97;;;8.30;99.90;;;8.28;100.00;102753.72;5255819;28;20055;-47
2024/01/31 05:34:18;;;;;;;10.07;5.63;;;8.30;99.90;;;8.28;100.00;102757.97;5258937;28;20063;-47
2024/01/31 05:36:51;;;;;;;12.02;4.60;;;8.30;99.90;;;8.27;100.00;102759.66;5256887;28;20048;-47
2024/01/31 05:39:23;;;;;;;12.13;5.80;;;8.30;99.90;;;8.28;100.00;102761.50;5253818;28;20076;-47
2024/01/31 05:41:57;;;;;;;14.20;4.55;;;8.30;99.90;;;8.28;100.00;102757.97;5258942;28;20112;-47
2024/01/31 05:44:29;;;;;;;15.60;5.43;;;8.30;99.90;;;8.30;100.00;102759.91;5260321;28;20048;-47
2024/01/31 05:47:02;;;;;;;14.00;6.22;;;8.30;99.90;;;8.31;100.00;102758.22;5263478;28;20511;-47
2024/01/31 05:49:34;;;;;;;11.10;5.53;;;8.30;99.90;;;8.32;100.00;102758.31;5254373;28;20063;-47
2024/01/31 05:52:07;;;;;;;15.73;6.15;;;8.30;99.90;;;8.33;100.00;102760.13;5258304;28;20522;-47
2024/01/31 05:54:40;;;;;;;17.50;6.80;;;8.30;99.90;;;8.33;100.00;102767.94;5251556;28;20051;-47
2024/01/31 05:57:13;;;;;;;16.05;6.15;;;8.30;99.90;;;8.32;100.00;102760.03;5255842;28;20052;-48
2024/01/31 05:59:49;;;;;;;17.77;6.15;;;8.30;99.90;;;8.31;100.00;102753.94;5263620;28;20051;-47
2024/01/31 06:02:21;;;;;;;14.38;5.72;;;8.30;99.90;;;8.32;100.00;102754.81;5263714;28;20055;-47
2024/01/31 06:04:54;;;;;;;12.32;6.13;;;8.30;99.90;;;8.30;100.00;102757.31;5263266;28;20040;-47
2024/01/31 06:07:26;;;;;;;12.88;5.88;;;8.30;99.90;;;8.29;100.00;102755.50;5253484;28;20047;-47
2024/01/31 06:09:58;;;;;;;17.98;6.97;;;8.30;99.90;;;8.28;100.00;102768.38;5261601;28;20052;-47
2024/01/31 06:12:32;;;;;;;18.98;7.05;;;8.30;99.90;;;8.23;100.00;102768.03;5261191;28;20510;-47
2024/01/31 06:15:06;;;;;;;12.55;5.50;;;8.30;99.90;;;8.22;100.00;102758.44;5261416;28;20085;-47
2024/01/31 06:17:39;;;;;;;14.00;5.95;;;8.20;99.90;;;8.22;100.00;102768.84;5253990;28;20439;-47
2024/01/31 06:20:13;;;;;;;13.80;5.55;;;8.20;99.90;;;8.19;100.00;102771.19;5254966;28;20049;-47
2024/01/31 06:22:45;;;;;;;20.58;6.78;;;8.20;99.90;;;8.17;100.00;102770.19;5262677;28;20470;-47
2024/01/31 06:25:18;;;;;;;14.63;5.15;;;8.20;99.90;;;8.20;100.00;102770.38;5254032;28;20047;-47
2024/01/31 06:27:51;;;;;;;18.77;5.90;;;8.20;99.90;;;8.20;100.00;102769.50;5262502;28;20048;-47
2024/01/31 06:30:31;;;;;;;14.82;6.18;;;8.20;99.90;;;8.20;100.00;102770.38;5259891;28;20048;-47
2024/01/31 06:33:07;;;;;;;12.50;5.55;;;8.20;99.90;;;8.24;100.00;102776.75;5262082;28;20058;-46
2024/01/31 06:35:42;;;;;;;12.75;6.10;;;8.20;99.90;;;8.25;100.00;102776.84;5262532;28;20465;-47
2024/01/31 06:38:15;;;;;;;19.20;6.47;;;8.30;99.90;;;8.24;100.00;102781.94;5246746;28;20056;-47
2024/01/31 06:40:47;;;;;;;15.20;5.68;;;8.30;99.90;;;8.22;100.00;102781.81;5262547;28;20044;-47
2024/01/31 06:43:21;;;;;;;16.10;6.25;;;8.30;99.90;;;8.23;100.00;102780.13;5259520;28;20040;-47
2024/01/31 06:45:54;;;;;;;12.35;4.20;;;8.30;99.90;;;8.21;100.00;102769.59;5261488;28;20053;-47
2024/01/31 06:48:28;;;;;;;14.02;4.65;;;8.30;99.90;;;8.20;100.00;102774.69;5255665;28;20048;-47
2024/01/31 06:51:00;;;;;;;10.80;4.78;;;8.30;99.90;;;8.20;100.00;102778.19;5256767;28;20862;-47
2024/01/31 06:53:33;;;;;;;8.75;4.70;;;8.20;99.90;;;8.18;100.00;102766.78;5262649;28;20048;-47
2024/01/31 06:56:06;;;;;;;13.10;5.10;;;8.20;99.90;;;8.19;100.00;102767.69;5259738;28;20071;-47
2024/01/31 06:58:40;;;;;;;16.65;4.93;;;8.20;99.90;;;8.19;100.00;102773.78;5258408;28;20048;-48
2024/01/31 07:01:16;;;;;;;12.43;5.10;;;8.20;99.90;;;8.20;100.00;102774.69;5256011;28;20045;-47
2024/01/31 07:03:48;;;;;;;15.18;4.72;;;8.20;99.90;;;8.20;100.00;102775.59;5250566;28;20043;-47
2024/01/31 07:06:20;;;;;;;10.52;4.88;;;8.20;99.90;;;8.21;100.00;102776.50;5257074;28;20059;-47
2024/01/31 07:08:53;;;;;;;12.98;5.50;;;8.20;99.90;;;8.23;100.00;102781.03;5260818;28;21344;-47
2024/01/31 07:11:25;;;;;;;13.13;5.40;;;8.20;99.90;;;8.25;100.00;102778.53;5249613;28;20056;-47
2024/01/31 07:13:59;;;;;;;15.65;4.68;;;8.30;99.90;;;8.26;100.00;102780.34;5256105;28;20413;-47
2024/01/31 07:16:31;;;;;;;17.33;7.60;;;8.30;99.90;;;8.26;100.00;102772.56;5253486;28;20049;-47
2024/01/31 07:19:03;;;;;;;18.40;6.20;;;8.30;99.90;;;8.23;100.00;102781.03;5263918;28;20044;-47
2024/01/31 07:21:36;;;;;;;15.23;5.85;;;8.30;99.90;;;8.22;100.00;102789.63;5257962;28;20058;-47
2024/01/31 07:24:11;;;;;;;13.48;5.47;;;8.30;99.90;;;8.21;100.00;102790.38;5251496;28;20059;-47
2024/01/31 07:26:43;;;;;;;21.52;7.97;;;8.20;99.90;;;8.26;100.00;102799.44;5256458;28;20410;-47
2024/01/31 07:29:17;;;;;;;13.77;6.35;;;8.30;99.90;;;8.27;100.00;102798.66;5251572;28;20055;-47
2024/01/31 07:31:50;;;;;;;18.83;4.88;;;8.30;99.90;;;8.28;100.00;102794.34;5251439;28;20053;-47
2024/01/31 07:34:23;;;;;;;17.92;5.10;;;8.30;99.90;;;8.26;100.00;102794.25;5253025;28;20076;-47
2024/01/31 07:36:55;;;;;;;15.90;6.93;;;8.30;99.90;;;8.27;100.00;102783.06;5255097;28;20052;-47
2024/01/31 07:39:27;;;;;;;14.25;5.80;;;8.30;99.90;;;8.26;100.00;102783.84;5254495;28;20047;-47
2024/01/31 07:42:00;;;;;;;15.52;5.90;;;8.30;99.90;;;8.26;100.00;102783.84;5253023;28;20055;-47
2024/01/31 07:44:34;;;;;;;11.93;6.03;;;8.30;99.90;;;8.27;100.00;102780.44;5257070;28;20044;-47
2024/01/31 07:47:06;;;;;;;18.10;6.50;;;8.30;99.90;;;8.26;100.00;102776.06;5252262;28;20049;-47
2024/01/31 07:49:38;;;;;;;17.27;5.95;;;8.30;99.90;;;8.29;100.00;102778.00;5253074;28;20044;-47
2024/01/31 07:52:12;;;;;;;15.00;5.68;;;8.30;99.90;;;8.27;100.00;102780.44;5253257;28;20426;-47
2024/01/31 07:54:45;;;;;;;12.60;4.30;;;8.30;99.90;;;8.28;100.00;102789.16;5260562;28;20063;-47
2024/01/31 07:57:17;;;;;;;12.52;5.22;;;8.30;99.90;;;8.27;100.00;102783.06;5250228;28;20040;-47
2024/01/31 07:59:51;;;;;;;14.68;5.75;;;8.30;99.90;;;8.27;100.00;102767.47;5256691;28;20040;-47
2024/01/31 08:02:24;;;;;;;11.82;5.32;;;8.30;99.90;;;8.27;100.00;102777.84;5242408;28;20053;-47
2024/01/31 08:04:56;;;;;;;21.20;6.90;;;8.30;99.90;;;8.28;100.00;102774.50;5260092;28;20048;-47
2024/01/31 08:07:28;;;;;;;18.08;6.55;;;8.30;99.90;;;8.30;100.00;102775.50;5253470;28;20556;-47
2024/01/31 08:10:04;;;;;;;12.23;6.10;;;8.30;99.90;;;8.29;100.00;102771.09;5251452;28;20510;-47
2024/01/31 08:12:40;;;;;;;18.25;6.28;;;8.30;99.90;;;8.28;100.00;102764.09;5245633;28;20053;-47
2024/01/31 08:15:14;;;;;;;18.30;5.90;;;8.30;99.90;;;8.30;100.00;102770.31;5258621;28;20048;-47
2024/01/31 08:17:47;;;;;;;16.50;6.38;;;8.30;99.90;;;8.29;100.00;102771.09;5255620;28;20040;-47
2024/01/31 08:20:21;;;;;;;13.13;5.80;;;8.30;99.90;;;8.30;100.00;102770.31;5259295;28;20040;-46
2024/01/31 08:22:53;;;;;;;16.73;6.45;;;8.30;99.90;;;8.31;100.00;102771.22;5249441;28;20055;-47
2024/01/31 08:25:25;;;;;;;17.58;6.20;;;8.30;99.90;;;8.30;100.00;102769.41;5255356;28;20059;-47
2024/01/31 08:27:58;;;;;;;18.75;6.72;;;8.30;99.90;;;8.32;100.00;102773.91;5258211;28;20040;-47
2024/01/31 08:30:31;;;;;;;12.65;6.90;;;8.30;99.90;;;8.34;100.00;102772.31;5257270;28;20056;-46
2024/01/31 08:33:04;;;;;;;13.35;5.72;;;8.30;99.90;;;8.36;100.00;102777.69;5249125;28;20049;-47
2024/01/31 08:35:36;;;;;;;13.73;6.40;;;8.40;99.90;;;8.38;100.00;102778.72;5253739;28;20052;-47
2024/01/31 08:38:09;;;;;;;16.85;6.38;;;8.40;99.90;;;8.38;100.00;102787.41;5257627;28;20048;-47
2024/01/31 08:40:41;;;;;;;12.85;5.47;;;8.40;99.90;;;8.40;100.00;102791.00;5249937;28;20059;-47
2024/01/31 08:43:14;;;;;;;15.20;6.13;;;8.40;99.90;;;8.43;100.00;102792.97;5255535;28;20048;-47
2024/01/31 08:45:48;;;;;;;17.05;7.30;;;8.40;99.90;;;8.46;100.00;102805.28;5259697;28;20127;-47
2024/01/31 08:48:21;;;;;;;16.90;6.60;;;8.50;99.90;;;8.47;100.00;102804.47;5256059;28;20056;-47
2024/01/31 08:50:53;;;;;;;14.25;5.82;;;8.40;99.90;;;8.50;100.00;102802.13;5249662;28;20045;-47
2024/01/31 08:53:25;;;;;;;14.60;5.40;;;8.50;99.90;;;8.52;100.00;102805.72;5251537;28;20060;-47
2024/01/31 08:55:58;;;;;;;17.20;6.78;;;8.50;99.90;;;8.54;100.00;102810.28;5248964;28;20064;-47
2024/01/31 08:58:30;;;;;;;14.80;5.80;;;8.50;99.90;;;8.56;100.00;102812.97;5251114;28;20594;-46
2024/01/31 09:01:05;;;;;;;17.08;6.03;;;8.60;99.90;;;8.57;100.00;102814.78;5256856;28;20749;-47
2024/01/31 09:03:37;;;;;;;20.17;8.15;;;8.50;99.90;;;8.59;100.00;102815.78;5254798;28;20165;-47
2024/01/31 09:06:09;;;;;;;19.10;7.53;;;8.50;99.90;;;8.59;100.00;102818.41;5254837;28;20051;-46
2024/01/31 09:08:42;;;;;;;13.57;6.18;;;8.60;99.90;;;8.59;100.00;102815.78;5260409;28;20052;-47
2024/01/31 09:11:14;;;;;;;15.50;6.45;;;8.60;99.90;;;8.59;100.00;102815.78;5262571;28;20043;-47
2024/01/31 09:13:49;;;;;;;16.45;5.18;;;8.60;99.90;;;8.60;100.00;102822.81;5261236;28;20064;-47
2024/01/31 09:16:26;;;;;;;16.23;6.63;;;8.60;99.90;;;8.61;100.00;102827.25;5248818;28;20048;-47
2024/01/31 09:18:59;;;;;;;12.80;5.88;;;8.60;99.90;;;8.61;100.00;102830.75;5249338;28;20052;-47
2024/01/31 09:21:31;;;;;;;16.95;6.03;;;8.60;99.90;;;8.61;100.00;102837.63;5253510;28;20131;-47
2024/01/31 09:24:04;;;;;;;13.35;5.97;;;8.60;99.90;;;8.61;100.00;102837.63;5246084;28;20052;-47
2024/01/31 09:26:39;;;;;;;14.50;5.88;;;8.60;99.90;;;8.60;100.00;102836.69;5251096;28;20056;-47
2024/01/31 09:29:12;;;;;;;17.38;6.43;;;8.60;99.90;;;8.60;100.00;102841.00;5254107;28;20530;-47
2024/01/31 09:31:46;;;;;;;14.18;4.85;;;8.60;99.90;;;8.58;100.00;102846.09;5256098;28;20544;-47
2024/01/31 09:34:18;;;;;;;14.30;5.55;;;8.60;99.90;;;8.54;100.00;102835.34;5252635;28;20049;-47
2024/01/31 09:36:50;;;;;;;15.35;5.47;;;8.60;99.90;;;8.50;100.00;102835.91;5252591;28;20052;-47
2024/01/31 09:39:23;;;;;;;14.27;6.22;;;8.50;99.90;;;8.49;100.00;102849.72;5249989;28;20102;-47
2024/01/31 09:41:55;;;;;;;17.13;6.82;;;8.50;99.90;;;8.47;100.00;102844.38;5248545;28;20061;-47
2024/01/31 09:44:29;;;;;;;15.15;5.85;;;8.50;99.90;;;8.48;100.00;102845.31;5259760;28;20055;-46
2024/01/31 09:47:05;;;;;;;16.40;5.65;;;8.50;99.90;;;8.50;100.00;102846.31;5245083;28;20454;-47
2024/01/31 09:49:37;;;;;;;18.27;5.57;;;8.50;99.90;;;8.53;100.00;102843.94;5257651;28;20469;-47
2024/01/31 09:52:15;;;;;;;15.90;5.60;;;8.50;99.90;;;8.53;100.00;102841.34;5251012;28;20059;-47
2024/01/31 09:54:49;;;;;;;11.88;6.07;;;8.50;99.90;;;8.55;100.00;102834.56;5258235;28;20075;-47
2024/01/31 09:57:22;;;;;;;15.32;5.22;;;8.50;99.90;;;8.57;100.00;102838.19;5254977;28;20487;-47
2024/01/31 09:59:56;;;;;;;14.10;8.02;;;8.60;99.90;;;8.57;100.00;102831.28;5263338;28;20052;-47
2024/01/31 10:02:33;;;;;;;20.92;7.78;;;8.60;99.90;;;8.60;100.00;102822.81;5257650;28;20492;-47
2024/01/31 10:05:07;;;;;;;16.60;6.10;;;8.60;99.90;;;8.63;100.00;102825.66;5259296;28;20052;-47
2024/01/31 10:07:40;;;;;;;12.75;5.32;;;8.60;99.90;;;8.63;100.00;102830.84;5261315;28;20587;-47
2024/01/31 10:10:12;;;;;;;18.75;6.88;;;8.60;99.90;;;8.64;100.00;102822.25;5255656;28;20511;-47
2024/01/31 10:12:45;;;;;;;14.60;6.80;;;8.60;99.90;;;8.66;100.00;102823.25;5247214;28;20057;-47
2024/01/31 10:15:17;;;;;;;16.85;5.88;;;8.70;99.90;;;8.69;100.00;102820.91;5259262;28;20522;-46
2024/01/31 10:17:51;;;;;;;17.30;6.65;;;8.60;99.90;;;8.67;100.00;102801.66;5251257;28;20093;-47
2024/01/31 10:20:23;;;;;;;18.90;6.32;;;8.70;99.90;;;8.66;100.00;102807.66;5258299;28;20056;-47
2024/01/31 10:22:56;;;;;;;12.27;4.65;;;8.70;99.90;;;8.66;100.00;102807.66;5265420;28;20414;-47
2024/01/31 10:25:28;;;;;;;12.05;5.47;;;8.70;99.90;;;8.70;100.00;102804.50;5260753;28;20048;-47
2024/01/31 10:28:00;;;;;;;12.60;5.07;;;8.70;99.90;;;8.71;100.00;102803.72;5257748;28;20702;-47
2024/01/31 10:30:33;;;;;;;10.68;5.22;;;8.70;99.90;;;8.73;100.00;102804.72;5254515;28;20051;-47
2024/01/31 10:33:08;;;;;;;10.93;4.95;;;8.70;99.90;;;8.76;100.00;102799.75;5263025;28;20593;-47
2024/01/31 10:35:42;;;;;;;9.65;4.03;;;8.70;99.90;;;8.77;100.00;102792.88;5259601;28;20044;-47
2024/01/31 10:38:15;;;;;;;9.32;3.92;;;8.70;99.90;;;8.79;100.00;102791.28;5261001;28;20454;-47